sensor_id;sensor_type;location;lat;lon;timestamp;P1;durP1;ratioP1;P2;durP2;ratioP2
45114;SDS011;30877;43.706;10.780;2023-08-06T00:01:22;3.38;;;0.52;;
45114;SDS011;30877;43.706;10.780;2023-08-06T00:03:51;1.10;;;0.50;;
45114;SDS011;30877;43.706;10.780;2023-08-06T00:06:19;3.08;;;0.68;;
45114;SDS011;30877;43.706;10.780;2023-08-06T00:08:49;2.78;;;0.80;;
45114;SDS011;30877;43.706;10.780;2023-08-06T00:11:17;1.48;;;0.60;;
45114;SDS011;30877;43.706;10.780;2023-08-06T00:13:45;2.08;;;0.70;;
45114;SDS011;30877;43.706;10.780;2023-08-06T00:16:14;1.67;;;0.80;;
45114;SDS011;30877;43.706;10.780;2023-08-06T00:18:42;3.30;;;0.75;;
45114;SDS011;30877;43.706;10.780;2023-08-06T00:21:10;1.77;;;1.15;;
45114;SDS011;30877;43.706;10.780;2023-08-06T00:23:41;2.70;;;0.90;;
45114;SDS011;30877;43.706;10.780;2023-08-06T00:26:11;1.58;;;0.50;;
45114;SDS011;30877;43.706;10.780;2023-08-06T00:28:39;1.40;;;0.80;;
45114;SDS011;30877;43.706;10.780;2023-08-06T00:31:07;3.33;;;0.77;;
45114;SDS011;30877;43.706;10.780;2023-08-06T00:33:35;1.55;;;0.70;;
45114;SDS011;30877;43.706;10.780;2023-08-06T00:36:04;1.10;;;0.60;;
45114;SDS011;30877;43.706;10.780;2023-08-06T00:38:34;1.60;;;0.82;;
45114;SDS011;30877;43.706;10.780;2023-08-06T00:41:02;3.13;;;0.75;;
45114;SDS011;30877;43.706;10.780;2023-08-06T00:43:32;1.10;;;0.70;;
45114;SDS011;30877;43.706;10.780;2023-08-06T00:46:00;1.05;;;0.68;;
45114;SDS011;30877;43.706;10.780;2023-08-06T00:48:29;1.15;;;0.73;;
45114;SDS011;30877;43.706;10.780;2023-08-06T00:50:58;1.50;;;0.88;;
45114;SDS011;30877;43.706;10.780;2023-08-06T00:53:30;1.23;;;0.70;;
45114;SDS011;30877;43.706;10.780;2023-08-06T00:55:58;1.10;;;0.65;;
45114;SDS011;30877;43.706;10.780;2023-08-06T00:58:26;2.25;;;0.52;;
45114;SDS011;30877;43.706;10.780;2023-08-06T01:00:56;2.15;;;0.60;;
45114;SDS011;30877;43.706;10.780;2023-08-06T01:03:24;1.55;;;0.50;;
45114;SDS011;30877;43.706;10.780;2023-08-06T01:05:53;2.60;;;0.50;;
45114;SDS011;30877;43.706;10.780;2023-08-06T01:08:25;0.98;;;0.43;;
45114;SDS011;30877;43.706;10.780;2023-08-06T01:11:10;1.50;;;0.50;;
45114;SDS011;30877;43.706;10.780;2023-08-06T01:13:50;1.08;;;0.60;;
45114;SDS011;30877;43.706;10.780;2023-08-06T01:18:56;2.47;;;0.57;;
45114;SDS011;30877;43.706;10.780;2023-08-06T01:21:27;1.15;;;0.50;;
45114;SDS011;30877;43.706;10.780;2023-08-06T01:23:55;1.95;;;0.60;;
45114;SDS011;30877;43.706;10.780;2023-08-06T01:26:25;2.75;;;0.57;;
45114;SDS011;30877;43.706;10.780;2023-08-06T01:28:59;1.38;;;0.70;;
45114;SDS011;30877;43.706;10.780;2023-08-06T01:31:32;1.83;;;0.80;;
45114;SDS011;30877;43.706;10.780;2023-08-06T01:34:06;0.70;;;0.50;;
45114;SDS011;30877;43.706;10.780;2023-08-06T01:36:39;0.82;;;0.50;;
45114;SDS011;30877;43.706;10.780;2023-08-06T01:41:43;2.53;;;0.80;;
45114;SDS011;30877;43.706;10.780;2023-08-06T01:44:12;1.10;;;0.68;;
45114;SDS011;30877;43.706;10.780;2023-08-06T01:46:41;2.00;;;0.73;;
45114;SDS011;30877;43.706;10.780;2023-08-06T01:49:10;1.30;;;0.55;;
45114;SDS011;30877;43.706;10.780;2023-08-06T01:51:45;1.27;;;0.57;;
45114;SDS011;30877;43.706;10.780;2023-08-06T01:54:23;3.42;;;0.50;;
45114;SDS011;30877;43.706;10.780;2023-08-06T01:56:56;3.13;;;0.45;;
45114;SDS011;30877;43.706;10.780;2023-08-06T01:59:26;1.65;;;0.50;;
45114;SDS011;30877;43.706;10.780;2023-08-06T02:01:56;1.75;;;0.43;;
45114;SDS011;30877;43.706;10.780;2023-08-06T02:04:29;1.33;;;0.55;;
45114;SDS011;30877;43.706;10.780;2023-08-06T02:07:00;0.88;;;0.50;;
45114;SDS011;30877;43.706;10.780;2023-08-06T02:09:29;1.95;;;0.40;;
45114;SDS011;30877;43.706;10.780;2023-08-06T02:11:58;2.05;;;0.45;;
45114;SDS011;30877;43.706;10.780;2023-08-06T02:14:27;0.90;;;0.40;;
45114;SDS011;30877;43.706;10.780;2023-08-06T02:16:57;5.15;;;0.60;;
45114;SDS011;30877;43.706;10.780;2023-08-06T02:19:26;0.65;;;0.30;;
45114;SDS011;30877;43.706;10.780;2023-08-06T02:21:55;3.40;;;0.70;;
45114;SDS011;30877;43.706;10.780;2023-08-06T02:24:26;2.30;;;0.40;;
45114;SDS011;30877;43.706;10.780;2023-08-06T02:26:55;1.83;;;0.63;;
45114;SDS011;30877;43.706;10.780;2023-08-06T02:29:24;1.10;;;0.47;;
45114;SDS011;30877;43.706;10.780;2023-08-06T02:31:53;0.55;;;0.40;;
45114;SDS011;30877;43.706;10.780;2023-08-06T02:34:23;1.88;;;0.50;;
45114;SDS011;30877;43.706;10.780;2023-08-06T02:36:52;1.70;;;0.50;;
45114;SDS011;30877;43.706;10.780;2023-08-06T02:39:21;1.85;;;0.40;;
45114;SDS011;30877;43.706;10.780;2023-08-06T02:41:52;2.40;;;0.93;;
45114;SDS011;30877;43.706;10.780;2023-08-06T02:44:22;2.65;;;0.57;;
45114;SDS011;30877;43.706;10.780;2023-08-06T02:46:54;0.93;;;0.50;;
45114;SDS011;30877;43.706;10.780;2023-08-06T02:49:23;0.77;;;0.40;;
45114;SDS011;30877;43.706;10.780;2023-08-06T02:51:53;1.10;;;0.40;;
45114;SDS011;30877;43.706;10.780;2023-08-06T02:54:22;0.98;;;0.50;;
45114;SDS011;30877;43.706;10.780;2023-08-06T02:56:53;1.50;;;0.50;;
45114;SDS011;30877;43.706;10.780;2023-08-06T02:59:27;0.98;;;0.40;;
45114;SDS011;30877;43.706;10.780;2023-08-06T03:02:18;3.15;;;0.43;;
45114;SDS011;30877;43.706;10.780;2023-08-06T03:04:58;1.52;;;0.50;;
45114;SDS011;30877;43.706;10.780;2023-08-06T03:07:32;1.67;;;0.47;;
45114;SDS011;30877;43.706;10.780;2023-08-06T03:10:12;2.55;;;0.60;;
45114;SDS011;30877;43.706;10.780;2023-08-06T03:12:45;1.30;;;0.47;;
45114;SDS011;30877;43.706;10.780;2023-08-06T03:15:14;1.55;;;0.80;;
45114;SDS011;30877;43.706;10.780;2023-08-06T03:17:45;1.17;;;0.57;;
45114;SDS011;30877;43.706;10.780;2023-08-06T03:20:17;1.30;;;0.60;;
45114;SDS011;30877;43.706;10.780;2023-08-06T03:22:47;0.73;;;0.50;;
45114;SDS011;30877;43.706;10.780;2023-08-06T03:25:17;2.28;;;0.70;;
45114;SDS011;30877;43.706;10.780;2023-08-06T03:27:50;1.45;;;0.43;;
45114;SDS011;30877;43.706;10.780;2023-08-06T03:30:20;3.80;;;0.50;;
45114;SDS011;30877;43.706;10.780;2023-08-06T03:32:52;0.90;;;0.50;;
45114;SDS011;30877;43.706;10.780;2023-08-06T03:35:21;1.05;;;0.40;;
45114;SDS011;30877;43.706;10.780;2023-08-06T03:37:51;2.75;;;0.50;;
45114;SDS011;30877;43.706;10.780;2023-08-06T03:40:21;1.38;;;0.30;;
45114;SDS011;30877;43.706;10.780;2023-08-06T03:42:52;2.05;;;0.70;;
45114;SDS011;30877;43.706;10.780;2023-08-06T03:45:21;2.58;;;0.60;;
45114;SDS011;30877;43.706;10.780;2023-08-06T03:47:51;0.65;;;0.47;;
45114;SDS011;30877;43.706;10.780;2023-08-06T03:50:20;1.45;;;0.55;;
45114;SDS011;30877;43.706;10.780;2023-08-06T03:52:50;1.52;;;0.50;;
45114;SDS011;30877;43.706;10.780;2023-08-06T03:55:21;2.47;;;0.38;;
45114;SDS011;30877;43.706;10.780;2023-08-06T03:57:52;1.75;;;0.60;;
45114;SDS011;30877;43.706;10.780;2023-08-06T04:00:21;1.13;;;0.57;;
45114;SDS011;30877;43.706;10.780;2023-08-06T04:02:52;1.67;;;0.65;;
45114;SDS011;30877;43.706;10.780;2023-08-06T04:05:22;4.05;;;0.65;;
45114;SDS011;30877;43.706;10.780;2023-08-06T04:07:51;0.85;;;0.50;;
45114;SDS011;30877;43.706;10.780;2023-08-06T04:10:19;1.17;;;0.60;;
45114;SDS011;30877;43.706;10.780;2023-08-06T04:12:48;0.80;;;0.40;;
45114;SDS011;30877;43.706;10.780;2023-08-06T04:15:19;2.08;;;0.70;;
45114;SDS011;30877;43.706;10.780;2023-08-06T04:17:48;2.20;;;0.30;;
45114;SDS011;30877;43.706;10.780;2023-08-06T04:20:17;1.55;;;0.45;;
45114;SDS011;30877;43.706;10.780;2023-08-06T04:22:46;2.55;;;0.57;;
45114;SDS011;30877;43.706;10.780;2023-08-06T04:25:15;1.85;;;0.65;;
45114;SDS011;30877;43.706;10.780;2023-08-06T04:27:50;0.73;;;0.50;;
45114;SDS011;30877;43.706;10.780;2023-08-06T04:30:20;1.80;;;0.70;;
45114;SDS011;30877;43.706;10.780;2023-08-06T04:32:49;4.85;;;0.60;;
45114;SDS011;30877;43.706;10.780;2023-08-06T04:35:20;2.15;;;0.55;;
45114;SDS011;30877;43.706;10.780;2023-08-06T04:37:50;1.10;;;0.40;;
45114;SDS011;30877;43.706;10.780;2023-08-06T04:40:18;1.00;;;0.60;;
45114;SDS011;30877;43.706;10.780;2023-08-06T04:42:47;0.75;;;0.30;;
45114;SDS011;30877;43.706;10.780;2023-08-06T04:45:17;2.15;;;0.70;;
45114;SDS011;30877;43.706;10.780;2023-08-06T04:47:48;2.00;;;0.40;;
45114;SDS011;30877;43.706;10.780;2023-08-06T04:50:17;1.75;;;0.50;;
45114;SDS011;30877;43.706;10.780;2023-08-06T04:52:46;2.33;;;0.43;;
45114;SDS011;30877;43.706;10.780;2023-08-06T04:55:14;0.80;;;0.50;;
45114;SDS011;30877;43.706;10.780;2023-08-06T04:57:43;1.92;;;0.38;;
45114;SDS011;30877;43.706;10.780;2023-08-06T05:00:13;1.80;;;0.55;;
45114;SDS011;30877;43.706;10.780;2023-08-06T05:02:43;1.20;;;0.50;;
45114;SDS011;30877;43.706;10.780;2023-08-06T05:05:13;1.60;;;0.50;;
45114;SDS011;30877;43.706;10.780;2023-08-06T05:07:42;3.28;;;0.73;;
45114;SDS011;30877;43.706;10.780;2023-08-06T05:10:11;1.92;;;0.40;;
45114;SDS011;30877;43.706;10.780;2023-08-06T05:12:39;2.80;;;0.60;;
45114;SDS011;30877;43.706;10.780;2023-08-06T05:15:08;1.58;;;0.50;;
45114;SDS011;30877;43.706;10.780;2023-08-06T05:17:37;0.88;;;0.50;;
45114;SDS011;30877;43.706;10.780;2023-08-06T05:20:08;2.10;;;0.52;;
45114;SDS011;30877;43.706;10.780;2023-08-06T05:22:38;1.85;;;0.57;;
45114;SDS011;30877;43.706;10.780;2023-08-06T05:25:07;1.83;;;0.50;;
45114;SDS011;30877;43.706;10.780;2023-08-06T05:27:36;2.45;;;0.63;;
45114;SDS011;30877;43.706;10.780;2023-08-06T05:30:06;1.80;;;0.82;;
45114;SDS011;30877;43.706;10.780;2023-08-06T05:32:35;1.38;;;0.50;;
45114;SDS011;30877;43.706;10.780;2023-08-06T05:35:04;1.08;;;0.70;;
45114;SDS011;30877;43.706;10.780;2023-08-06T05:37:36;1.80;;;0.50;;
45114;SDS011;30877;43.706;10.780;2023-08-06T05:40:05;2.00;;;0.50;;
45114;SDS011;30877;43.706;10.780;2023-08-06T05:42:35;1.00;;;0.50;;
45114;SDS011;30877;43.706;10.780;2023-08-06T05:45:04;1.05;;;0.50;;
45114;SDS011;30877;43.706;10.780;2023-08-06T05:47:33;1.48;;;0.73;;
45114;SDS011;30877;43.706;10.780;2023-08-06T05:50:02;2.05;;;0.68;;
45114;SDS011;30877;43.706;10.780;2023-08-06T05:52:31;1.08;;;0.50;;
45114;SDS011;30877;43.706;10.780;2023-08-06T05:55:02;3.47;;;0.77;;
45114;SDS011;30877;43.706;10.780;2023-08-06T05:57:31;5.45;;;1.00;;
45114;SDS011;30877;43.706;10.780;2023-08-06T06:00:00;2.72;;;1.20;;
45114;SDS011;30877;43.706;10.780;2023-08-06T06:02:38;5.43;;;1.65;;
45114;SDS011;30877;43.706;10.780;2023-08-06T06:05:07;3.85;;;1.85;;
45114;SDS011;30877;43.706;10.780;2023-08-06T06:07:36;3.00;;;1.17;;
45114;SDS011;30877;43.706;10.780;2023-08-06T06:10:07;1.52;;;1.00;;
45114;SDS011;30877;43.706;10.780;2023-08-06T06:12:38;1.75;;;0.77;;
45114;SDS011;30877;43.706;10.780;2023-08-06T06:15:07;2.95;;;0.85;;
45114;SDS011;30877;43.706;10.780;2023-08-06T06:17:36;1.33;;;0.50;;
45114;SDS011;30877;43.706;10.780;2023-08-06T06:20:06;1.85;;;0.70;;
45114;SDS011;30877;43.706;10.780;2023-08-06T06:22:35;1.85;;;0.40;;
45114;SDS011;30877;43.706;10.780;2023-08-06T06:25:04;0.70;;;0.40;;
45114;SDS011;30877;43.706;10.780;2023-08-06T06:27:36;0.93;;;0.50;;
45114;SDS011;30877;43.706;10.780;2023-08-06T06:30:05;1.42;;;0.50;;
45114;SDS011;30877;43.706;10.780;2023-08-06T06:32:35;3.17;;;0.80;;
45114;SDS011;30877;43.706;10.780;2023-08-06T06:35:04;2.78;;;0.77;;
45114;SDS011;30877;43.706;10.780;2023-08-06T06:37:34;3.25;;;1.08;;
45114;SDS011;30877;43.706;10.780;2023-08-06T06:40:03;7.28;;;1.55;;
45114;SDS011;30877;43.706;10.780;2023-08-06T06:42:34;4.72;;;1.88;;
45114;SDS011;30877;43.706;10.780;2023-08-06T06:45:07;4.55;;;1.42;;
45114;SDS011;30877;43.706;10.780;2023-08-06T06:47:37;4.07;;;1.42;;
45114;SDS011;30877;43.706;10.780;2023-08-06T06:50:06;5.25;;;1.90;;
45114;SDS011;30877;43.706;10.780;2023-08-06T06:52:35;4.28;;;1.40;;
45114;SDS011;30877;43.706;10.780;2023-08-06T06:55:05;3.22;;;1.55;;
45114;SDS011;30877;43.706;10.780;2023-08-06T06:57:36;2.70;;;1.50;;
45114;SDS011;30877;43.706;10.780;2023-08-06T07:00:05;4.65;;;1.40;;
45114;SDS011;30877;43.706;10.780;2023-08-06T07:02:35;3.80;;;1.50;;
45114;SDS011;30877;43.706;10.780;2023-08-06T07:05:04;1.60;;;0.70;;
45114;SDS011;30877;43.706;10.780;2023-08-06T07:07:34;2.88;;;0.93;;
45114;SDS011;30877;43.706;10.780;2023-08-06T07:10:04;3.30;;;0.60;;
45114;SDS011;30877;43.706;10.780;2023-08-06T07:12:35;2.65;;;0.77;;
45114;SDS011;30877;43.706;10.780;2023-08-06T07:15:05;1.20;;;0.47;;
45114;SDS011;30877;43.706;10.780;2023-08-06T07:17:35;1.63;;;0.57;;
45114;SDS011;30877;43.706;10.780;2023-08-06T07:20:03;2.83;;;0.75;;
45114;SDS011;30877;43.706;10.780;2023-08-06T07:22:33;1.40;;;0.70;;
45114;SDS011;30877;43.706;10.780;2023-08-06T07:25:01;2.60;;;0.80;;
45114;SDS011;30877;43.706;10.780;2023-08-06T07:27:28;2.80;;;0.68;;
45114;SDS011;30877;43.706;10.780;2023-08-06T07:29:58;2.20;;;0.63;;
45114;SDS011;30877;43.706;10.780;2023-08-06T07:32:26;3.05;;;0.70;;
45114;SDS011;30877;43.706;10.780;2023-08-06T07:34:54;2.10;;;0.70;;
45114;SDS011;30877;43.706;10.780;2023-08-06T07:37:26;1.35;;;0.47;;
45114;SDS011;30877;43.706;10.780;2023-08-06T07:39:55;1.45;;;0.50;;
45114;SDS011;30877;43.706;10.780;2023-08-06T07:42:23;2.15;;;0.80;;
45114;SDS011;30877;43.706;10.780;2023-08-06T07:44:52;1.98;;;0.75;;
45114;SDS011;30877;43.706;10.780;2023-08-06T07:47:22;1.13;;;0.40;;
45114;SDS011;30877;43.706;10.780;2023-08-06T07:49:50;2.38;;;0.82;;
45114;SDS011;30877;43.706;10.780;2023-08-06T07:52:19;2.75;;;0.60;;
45114;SDS011;30877;43.706;10.780;2023-08-06T07:54:47;2.97;;;0.90;;
45114;SDS011;30877;43.706;10.780;2023-08-06T07:57:14;3.05;;;0.77;;
45114;SDS011;30877;43.706;10.780;2023-08-06T07:59:44;3.40;;;0.70;;
45114;SDS011;30877;43.706;10.780;2023-08-06T08:02:12;5.10;;;0.80;;
45114;SDS011;30877;43.706;10.780;2023-08-06T08:04:42;3.10;;;0.60;;
45114;SDS011;30877;43.706;10.780;2023-08-06T08:07:10;1.92;;;0.90;;
45114;SDS011;30877;43.706;10.780;2023-08-06T08:09:38;4.10;;;0.90;;
45114;SDS011;30877;43.706;10.780;2023-08-06T08:12:07;5.57;;;1.20;;
45114;SDS011;30877;43.706;10.780;2023-08-06T08:14:35;4.30;;;0.95;;
45114;SDS011;30877;43.706;10.780;2023-08-06T08:17:04;3.60;;;1.10;;
45114;SDS011;30877;43.706;10.780;2023-08-06T08:19:33;4.50;;;1.00;;
45114;SDS011;30877;43.706;10.780;2023-08-06T08:22:03;5.22;;;1.38;;
45114;SDS011;30877;43.706;10.780;2023-08-06T08:24:32;5.28;;;1.20;;
45114;SDS011;30877;43.706;10.780;2023-08-06T08:27:00;6.63;;;1.58;;
45114;SDS011;30877;43.706;10.780;2023-08-06T08:29:29;4.18;;;1.08;;
45114;SDS011;30877;43.706;10.780;2023-08-06T08:31:57;6.07;;;1.58;;
45114;SDS011;30877;43.706;10.780;2023-08-06T08:34:26;5.55;;;1.70;;
45114;SDS011;30877;43.706;10.780;2023-08-06T08:36:55;7.85;;;1.70;;
45114;SDS011;30877;43.706;10.780;2023-08-06T08:39:25;9.60;;;2.03;;
45114;SDS011;30877;43.706;10.780;2023-08-06T08:41:55;9.07;;;1.70;;
45114;SDS011;30877;43.706;10.780;2023-08-06T08:44:23;6.55;;;2.03;;
45114;SDS011;30877;43.706;10.780;2023-08-06T08:46:55;8.52;;;2.40;;
45114;SDS011;30877;43.706;10.780;2023-08-06T08:49:25;7.55;;;1.50;;
45114;SDS011;30877;43.706;10.780;2023-08-06T08:51:55;7.03;;;1.95;;
45114;SDS011;30877;43.706;10.780;2023-08-06T08:54:26;8.98;;;2.00;;
45114;SDS011;30877;43.706;10.780;2023-08-06T08:56:56;7.97;;;2.30;;
45114;SDS011;30877;43.706;10.780;2023-08-06T08:59:26;8.10;;;1.70;;
45114;SDS011;30877;43.706;10.780;2023-08-06T09:01:55;9.20;;;2.30;;
45114;SDS011;30877;43.706;10.780;2023-08-06T09:04:24;8.60;;;2.33;;
45114;SDS011;30877;43.706;10.780;2023-08-06T09:06:59;7.88;;;1.90;;
45114;SDS011;30877;43.706;10.780;2023-08-06T09:09:33;11.77;;;2.28;;
45114;SDS011;30877;43.706;10.780;2023-08-06T09:12:05;6.63;;;1.90;;
45114;SDS011;30877;43.706;10.780;2023-08-06T09:14:39;13.13;;;2.63;;
45114;SDS011;30877;43.706;10.780;2023-08-06T09:17:08;9.73;;;2.25;;
45114;SDS011;30877;43.706;10.780;2023-08-06T09:19:41;10.07;;;2.15;;
45114;SDS011;30877;43.706;10.780;2023-08-06T09:22:15;9.45;;;2.05;;
45114;SDS011;30877;43.706;10.780;2023-08-06T09:24:45;10.38;;;2.00;;
45114;SDS011;30877;43.706;10.780;2023-08-06T09:27:14;10.88;;;2.28;;
45114;SDS011;30877;43.706;10.780;2023-08-06T09:29:44;6.85;;;1.73;;
45114;SDS011;30877;43.706;10.780;2023-08-06T09:32:13;10.35;;;2.67;;
45114;SDS011;30877;43.706;10.780;2023-08-06T09:34:42;9.45;;;2.45;;
45114;SDS011;30877;43.706;10.780;2023-08-06T09:37:11;9.65;;;2.60;;
45114;SDS011;30877;43.706;10.780;2023-08-06T09:39:40;9.50;;;2.38;;
45114;SDS011;30877;43.706;10.780;2023-08-06T09:42:14;13.38;;;2.83;;
45114;SDS011;30877;43.706;10.780;2023-08-06T09:44:43;8.50;;;2.20;;
45114;SDS011;30877;43.706;10.780;2023-08-06T09:47:11;8.90;;;2.58;;
45114;SDS011;30877;43.706;10.780;2023-08-06T09:49:44;14.88;;;2.47;;
45114;SDS011;30877;43.706;10.780;2023-08-06T09:52:13;8.20;;;2.53;;
45114;SDS011;30877;43.706;10.780;2023-08-06T09:54:43;13.05;;;2.70;;
45114;SDS011;30877;43.706;10.780;2023-08-06T09:57:14;6.05;;;2.00;;
45114;SDS011;30877;43.706;10.780;2023-08-06T09:59:43;14.00;;;3.40;;
45114;SDS011;30877;43.706;10.780;2023-08-06T10:02:14;12.10;;;2.50;;
45114;SDS011;30877;43.706;10.780;2023-08-06T10:04:45;8.43;;;2.35;;
45114;SDS011;30877;43.706;10.780;2023-08-06T10:07:21;9.63;;;3.47;;
45114;SDS011;30877;43.706;10.780;2023-08-06T10:09:51;10.55;;;2.65;;
45114;SDS011;30877;43.706;10.780;2023-08-06T10:12:21;12.95;;;4.47;;
45114;SDS011;30877;43.706;10.780;2023-08-06T10:14:52;14.05;;;3.53;;
45114;SDS011;30877;43.706;10.780;2023-08-06T10:17:23;12.20;;;3.58;;
45114;SDS011;30877;43.706;10.780;2023-08-06T10:20:11;9.02;;;2.42;;
45114;SDS011;30877;43.706;10.780;2023-08-06T10:22:42;12.30;;;2.75;;
45114;SDS011;30877;43.706;10.780;2023-08-06T10:25:16;9.13;;;1.92;;
45114;SDS011;30877;43.706;10.780;2023-08-06T10:27:54;10.88;;;2.45;;
45114;SDS011;30877;43.706;10.780;2023-08-06T10:30:24;11.65;;;2.75;;
45114;SDS011;30877;43.706;10.780;2023-08-06T10:32:57;10.35;;;2.45;;
45114;SDS011;30877;43.706;10.780;2023-08-06T10:35:28;9.00;;;2.83;;
45114;SDS011;30877;43.706;10.780;2023-08-06T10:38:07;10.13;;;2.50;;
45114;SDS011;30877;43.706;10.780;2023-08-06T10:40:37;8.45;;;2.22;;
45114;SDS011;30877;43.706;10.780;2023-08-06T10:43:11;8.43;;;2.00;;
45114;SDS011;30877;43.706;10.780;2023-08-06T10:45:54;8.70;;;2.35;;
45114;SDS011;30877;43.706;10.780;2023-08-06T10:48:30;10.35;;;2.47;;
45114;SDS011;30877;43.706;10.780;2023-08-06T10:50:59;6.78;;;2.33;;
45114;SDS011;30877;43.706;10.780;2023-08-06T10:53:29;13.00;;;2.75;;
45114;SDS011;30877;43.706;10.780;2023-08-06T10:56:00;9.52;;;2.08;;
45114;SDS011;30877;43.706;10.780;2023-08-06T10:58:34;8.95;;;2.65;;
45114;SDS011;30877;43.706;10.780;2023-08-06T11:01:02;11.20;;;2.63;;
45114;SDS011;30877;43.706;10.780;2023-08-06T11:03:31;8.13;;;2.45;;
45114;SDS011;30877;43.706;10.780;2023-08-06T11:06:00;7.88;;;2.95;;
45114;SDS011;30877;43.706;10.780;2023-08-06T11:08:33;8.52;;;2.30;;
45114;SDS011;30877;43.706;10.780;2023-08-06T11:11:08;10.85;;;2.25;;
45114;SDS011;30877;43.706;10.780;2023-08-06T11:13:42;10.35;;;2.30;;
45114;SDS011;30877;43.706;10.780;2023-08-06T11:16:15;9.02;;;2.22;;
45114;SDS011;30877;43.706;10.780;2023-08-06T11:18:46;9.38;;;2.90;;
45114;SDS011;30877;43.706;10.780;2023-08-06T11:21:15;7.75;;;2.15;;
45114;SDS011;30877;43.706;10.780;2023-08-06T11:23:46;8.43;;;2.55;;
45114;SDS011;30877;43.706;10.780;2023-08-06T11:26:18;9.80;;;2.70;;
45114;SDS011;30877;43.706;10.780;2023-08-06T11:28:49;13.38;;;2.78;;
45114;SDS011;30877;43.706;10.780;2023-08-06T11:31:20;9.75;;;2.13;;
45114;SDS011;30877;43.706;10.780;2023-08-06T11:33:50;7.63;;;2.20;;
45114;SDS011;30877;43.706;10.780;2023-08-06T11:36:28;7.35;;;2.38;;
45114;SDS011;30877;43.706;10.780;2023-08-06T11:38:58;9.88;;;2.47;;
45114;SDS011;30877;43.706;10.780;2023-08-06T11:41:27;8.35;;;2.28;;
45114;SDS011;30877;43.706;10.780;2023-08-06T11:43:58;7.47;;;2.58;;
45114;SDS011;30877;43.706;10.780;2023-08-06T11:46:27;5.82;;;2.00;;
45114;SDS011;30877;43.706;10.780;2023-08-06T11:48:56;7.82;;;2.70;;
45114;SDS011;30877;43.706;10.780;2023-08-06T11:51:26;7.32;;;1.92;;
45114;SDS011;30877;43.706;10.780;2023-08-06T11:53:55;9.45;;;2.92;;
45114;SDS011;30877;43.706;10.780;2023-08-06T11:56:24;7.15;;;2.38;;
45114;SDS011;30877;43.706;10.780;2023-08-06T11:58:54;9.27;;;2.38;;
45114;SDS011;30877;43.706;10.780;2023-08-06T12:01:25;9.68;;;2.30;;
45114;SDS011;30877;43.706;10.780;2023-08-06T12:03:58;8.20;;;2.25;;
45114;SDS011;30877;43.706;10.780;2023-08-06T12:06:27;6.68;;;2.17;;
45114;SDS011;30877;43.706;10.780;2023-08-06T12:08:55;6.80;;;2.00;;
45114;SDS011;30877;43.706;10.780;2023-08-06T12:11:23;6.90;;;2.30;;
45114;SDS011;30877;43.706;10.780;2023-08-06T12:13:52;7.90;;;2.20;;
45114;SDS011;30877;43.706;10.780;2023-08-06T12:16:25;5.63;;;2.28;;
45114;SDS011;30877;43.706;10.780;2023-08-06T12:18:54;6.20;;;1.92;;
45114;SDS011;30877;43.706;10.780;2023-08-06T12:21:22;9.18;;;2.00;;
45114;SDS011;30877;43.706;10.780;2023-08-06T12:23:50;7.78;;;2.00;;
45114;SDS011;30877;43.706;10.780;2023-08-06T12:26:19;10.30;;;2.00;;
45114;SDS011;30877;43.706;10.780;2023-08-06T12:28:47;8.15;;;1.92;;
45114;SDS011;30877;43.706;10.780;2023-08-06T12:31:16;8.15;;;2.03;;
45114;SDS011;30877;43.706;10.780;2023-08-06T12:33:46;17.50;;;2.47;;
45114;SDS011;30877;43.706;10.780;2023-08-06T12:36:14;4.95;;;1.50;;
45114;SDS011;30877;43.706;10.780;2023-08-06T12:38:43;5.97;;;2.00;;
45114;SDS011;30877;43.706;10.780;2023-08-06T12:41:12;4.65;;;1.92;;
45114;SDS011;30877;43.706;10.780;2023-08-06T12:43:40;5.18;;;1.83;;
45114;SDS011;30877;43.706;10.780;2023-08-06T12:46:09;7.63;;;2.05;;
45114;SDS011;30877;43.706;10.780;2023-08-06T12:48:37;7.50;;;2.33;;
45114;SDS011;30877;43.706;10.780;2023-08-06T12:51:07;4.55;;;1.98;;
45114;SDS011;30877;43.706;10.780;2023-08-06T12:53:36;7.03;;;2.45;;
45114;SDS011;30877;43.706;10.780;2023-08-06T12:56:04;8.95;;;2.50;;
45114;SDS011;30877;43.706;10.780;2023-08-06T12:58:33;10.50;;;2.42;;
45114;SDS011;30877;43.706;10.780;2023-08-06T13:01:01;7.07;;;2.38;;
45114;SDS011;30877;43.706;10.780;2023-08-06T13:03:30;10.73;;;3.22;;
45114;SDS011;30877;43.706;10.780;2023-08-06T13:05:59;8.77;;;2.65;;
45114;SDS011;30877;43.706;10.780;2023-08-06T13:08:29;11.07;;;2.65;;
45114;SDS011;30877;43.706;10.780;2023-08-06T13:10:57;10.50;;;2.75;;
45114;SDS011;30877;43.706;10.780;2023-08-06T13:13:26;10.43;;;2.53;;
45114;SDS011;30877;43.706;10.780;2023-08-06T13:15:54;13.02;;;2.70;;
45114;SDS011;30877;43.706;10.780;2023-08-06T13:18:23;9.30;;;2.63;;
45114;SDS011;30877;43.706;10.780;2023-08-06T13:20:52;14.10;;;3.28;;
45114;SDS011;30877;43.706;10.780;2023-08-06T13:23:21;9.15;;;2.40;;
45114;SDS011;30877;43.706;10.780;2023-08-06T13:25:51;9.48;;;3.05;;
45114;SDS011;30877;43.706;10.780;2023-08-06T13:28:20;11.98;;;2.85;;
45114;SDS011;30877;43.706;10.780;2023-08-06T13:30:48;8.73;;;2.22;;
45114;SDS011;30877;43.706;10.780;2023-08-06T13:33:17;9.63;;;2.40;;
45114;SDS011;30877;43.706;10.780;2023-08-06T13:35:45;14.88;;;2.80;;
45114;SDS011;30877;43.706;10.780;2023-08-06T13:38:13;10.93;;;2.70;;
45114;SDS011;30877;43.706;10.780;2023-08-06T13:40:42;11.60;;;3.20;;
45114;SDS011;30877;43.706;10.780;2023-08-06T13:43:13;9.00;;;2.63;;
45114;SDS011;30877;43.706;10.780;2023-08-06T13:45:44;14.82;;;3.40;;
45114;SDS011;30877;43.706;10.780;2023-08-06T13:48:12;12.77;;;3.70;;
45114;SDS011;30877;43.706;10.780;2023-08-06T13:50:41;10.02;;;2.60;;
45114;SDS011;30877;43.706;10.780;2023-08-06T13:53:09;9.90;;;2.42;;
45114;SDS011;30877;43.706;10.780;2023-08-06T13:55:38;9.85;;;2.58;;
45114;SDS011;30877;43.706;10.780;2023-08-06T13:58:06;9.13;;;2.45;;
45114;SDS011;30877;43.706;10.780;2023-08-06T14:00:37;11.60;;;2.45;;
45114;SDS011;30877;43.706;10.780;2023-08-06T14:03:05;7.53;;;2.70;;
45114;SDS011;30877;43.706;10.780;2023-08-06T14:05:34;8.43;;;2.60;;
45114;SDS011;30877;43.706;10.780;2023-08-06T14:08:02;14.85;;;2.55;;
45114;SDS011;30877;43.706;10.780;2023-08-06T14:10:31;12.85;;;2.53;;
45114;SDS011;30877;43.706;10.780;2023-08-06T14:12:59;10.40;;;2.30;;
45114;SDS011;30877;43.706;10.780;2023-08-06T14:15:38;9.65;;;2.60;;
45114;SDS011;30877;43.706;10.780;2023-08-06T14:18:07;9.13;;;2.25;;
45114;SDS011;30877;43.706;10.780;2023-08-06T14:20:36;12.13;;;2.40;;
45114;SDS011;30877;43.706;10.780;2023-08-06T14:23:04;9.73;;;2.38;;
45114;SDS011;30877;43.706;10.780;2023-08-06T14:25:33;9.35;;;2.10;;
45114;SDS011;30877;43.706;10.780;2023-08-06T14:28:01;11.93;;;3.13;;
45114;SDS011;30877;43.706;10.780;2023-08-06T14:30:30;14.48;;;2.70;;
45114;SDS011;30877;43.706;10.780;2023-08-06T14:33:00;8.13;;;2.80;;
45114;SDS011;30877;43.706;10.780;2023-08-06T14:35:50;14.50;;;2.13;;
45114;SDS011;30877;43.706;10.780;2023-08-06T14:38:18;9.75;;;2.63;;
45114;SDS011;30877;43.706;10.780;2023-08-06T14:40:47;12.20;;;2.40;;
45114;SDS011;30877;43.706;10.780;2023-08-06T14:43:15;11.88;;;2.75;;
45114;SDS011;30877;43.706;10.780;2023-08-06T14:45:44;6.70;;;1.90;;
45114;SDS011;30877;43.706;10.780;2023-08-06T14:48:14;9.73;;;2.50;;
45114;SDS011;30877;43.706;10.780;2023-08-06T14:50:43;12.68;;;2.28;;
45114;SDS011;30877;43.706;10.780;2023-08-06T14:53:11;8.57;;;2.15;;
45114;SDS011;30877;43.706;10.780;2023-08-06T14:55:40;9.88;;;2.10;;